createdAt,value
2023-05-06T00:00:22.950Z,3.75
2023-05-06T00:02:54.621Z,3.71
2023-05-06T00:05:26.485Z,3.56
2023-05-06T00:07:58.130Z,3.57
2023-05-06T00:10:29.774Z,3.65
2023-05-06T00:13:01.427Z,3.43
2023-05-06T00:15:33.091Z,3.42
2023-05-06T00:18:05.131Z,3.54
2023-05-06T00:20:36.758Z,3.43
2023-05-06T00:23:08.351Z,3.49
2023-05-06T00:25:39.966Z,3.52
2023-05-06T00:28:11.536Z,3.47
2023-05-06T00:30:43.852Z,3.22
2023-05-06T00:33:15.592Z,3.55
2023-05-06T00:35:47.189Z,3.68
2023-05-06T00:38:19.098Z,3.68
2023-05-06T00:40:50.766Z,3.84
2023-05-06T00:43:22.442Z,3.80
2023-05-06T00:45:54.561Z,4.14
2023-05-06T00:48:26.255Z,4.05
2023-05-06T00:50:57.830Z,4.08
2023-05-06T00:53:30.190Z,4.06
2023-05-06T00:56:03.345Z,3.98
2023-05-06T00:58:35.143Z,4.26
2023-05-06T01:01:06.932Z,4.59
2023-05-06T01:03:38.704Z,4.37
2023-05-06T01:06:15.955Z,4.57
2023-05-06T01:08:58.698Z,4.22
2023-05-06T01:11:41.083Z,4.08
2023-05-06T01:14:46.940Z,3.69
2023-05-06T01:17:20.319Z,3.79
2023-05-06T01:19:52.341Z,4.02
2023-05-06T01:22:26.158Z,3.96
2023-05-06T01:24:57.808Z,3.63
2023-05-06T01:27:29.487Z,3.49
2023-05-06T01:30:02.043Z,3.79
2023-05-06T01:32:38.029Z,3.69
2023-05-06T01:35:13.122Z,3.93
2023-05-06T01:37:52.113Z,3.76
2023-05-06T01:40:27.838Z,3.57
2023-05-06T01:43:01.825Z,3.73
2023-05-06T01:45:37.382Z,3.83
2023-05-06T01:48:10.073Z,3.91
2023-05-06T01:50:43.867Z,4.00
2023-05-06T01:53:15.574Z,3.88
2023-05-06T01:55:48.163Z,3.62
2023-05-06T01:58:21.813Z,3.93
2023-05-06T02:00:53.666Z,4.04
2023-05-06T02:03:25.651Z,4.02
2023-05-06T02:05:58.079Z,4.20
2023-05-06T02:08:31.780Z,4.32
2023-05-06T02:11:03.795Z,3.98
2023-05-06T02:13:36.925Z,3.95
2023-05-06T02:16:09.272Z,3.87
2023-05-06T02:18:41.715Z,3.87
2023-05-06T02:21:13.901Z,4.17
2023-05-06T02:23:45.629Z,4.21
2023-05-06T02:26:18.416Z,4.10
2023-05-06T02:28:50.033Z,4.13
2023-05-06T02:31:21.644Z,4.23
2023-05-06T02:33:53.402Z,4.13
2023-05-06T02:36:24.999Z,3.84
2023-05-06T02:38:59.660Z,4.05
2023-05-06T02:41:31.196Z,4.13
2023-05-06T02:44:02.853Z,4.14
2023-05-06T02:46:36.066Z,4.02
2023-05-06T02:49:07.684Z,4.04
2023-05-06T02:51:39.285Z,4.00
2023-05-06T02:54:10.989Z,3.94
2023-05-06T02:56:42.594Z,4.05
2023-05-06T02:59:14.219Z,4.11
2023-05-06T03:01:45.796Z,4.20
2023-05-06T03:04:17.431Z,4.07
2023-05-06T03:06:48.998Z,3.93
2023-05-06T03:09:20.769Z,3.69
2023-05-06T03:11:52.860Z,3.84
2023-05-06T03:14:25.959Z,3.62
2023-05-06T03:16:58.000Z,3.84
2023-05-06T03:19:30.111Z,3.53
2023-05-06T03:22:02.469Z,4.06
2023-05-06T03:24:35.990Z,3.86
2023-05-06T03:27:10.319Z,3.84
2023-05-06T03:29:42.637Z,3.70
2023-05-06T03:32:15.925Z,4.00
2023-05-06T03:34:49.347Z,3.69
2023-05-06T03:37:28.519Z,3.95
2023-05-06T03:40:01.952Z,3.95
2023-05-06T03:42:34.865Z,3.89
2023-05-06T03:45:07.511Z,4.02
2023-05-06T03:47:39.393Z,3.83
2023-05-06T03:50:13.059Z,3.62
2023-05-06T03:52:46.042Z,4.05
2023-05-06T03:55:17.852Z,3.73
2023-05-06T03:57:49.562Z,3.71
2023-05-06T04:00:21.802Z,3.88
2023-05-06T04:02:57.852Z,4.02
2023-05-06T04:05:36.609Z,4.07
2023-05-06T04:08:09.225Z,3.79
2023-05-06T04:10:41.001Z,3.77
2023-05-06T04:13:21.282Z,3.52
2023-05-06T04:15:54.088Z,3.94
2023-05-06T04:18:31.056Z,3.93
2023-05-06T04:21:08.468Z,3.79
2023-05-06T04:23:42.403Z,4.06
2023-05-06T04:26:16.677Z,3.88
2023-05-06T04:28:50.221Z,3.84
2023-05-06T04:31:22.801Z,3.57
2023-05-06T04:33:55.786Z,3.70
2023-05-06T04:36:30.501Z,3.76
2023-05-06T04:39:16.505Z,3.80
2023-05-06T04:41:48.239Z,3.80
2023-05-06T04:44:25.012Z,3.66
2023-05-06T04:46:57.931Z,3.49
2023-05-06T04:49:30.653Z,3.41
2023-05-06T04:52:02.403Z,3.64
2023-05-06T04:54:34.156Z,3.54
2023-05-06T04:57:05.913Z,3.48
2023-05-06T04:59:38.792Z,3.63
2023-05-06T05:02:11.427Z,3.50
2023-05-06T05:04:45.226Z,3.23
2023-05-06T05:07:17.030Z,3.39
2023-05-06T05:09:48.711Z,3.63
2023-05-06T05:12:20.289Z,3.57
2023-05-06T05:14:55.308Z,3.43
2023-05-06T05:17:27.575Z,3.41
2023-05-06T05:19:59.200Z,3.41
2023-05-06T05:22:32.240Z,3.41
2023-05-06T05:25:07.486Z,3.22
2023-05-06T05:27:39.961Z,3.26
2023-05-06T05:30:12.437Z,3.51
2023-05-06T05:32:44.623Z,3.03
2023-05-06T05:35:16.299Z,3.34
2023-05-06T05:37:49.085Z,3.27
2023-05-06T05:40:21.080Z,3.00
2023-05-06T05:42:56.519Z,3.26
2023-05-06T05:45:35.267Z,3.21
2023-05-06T05:48:07.357Z,3.30
2023-05-06T05:50:38.994Z,3.09
2023-05-06T05:53:11.258Z,3.13
2023-05-06T05:55:43.419Z,2.81
2023-05-06T05:58:15.296Z,2.80
2023-05-06T06:00:48.655Z,2.76
2023-05-06T06:03:22.754Z,2.84
2023-05-06T06:05:54.472Z,2.72
2023-05-06T06:08:26.231Z,2.53
2023-05-06T06:10:58.354Z,2.76
2023-05-06T06:13:36.249Z,3.02
2023-05-06T06:16:08.261Z,3.15
2023-05-06T06:18:40.273Z,3.15
2023-05-06T06:21:12.088Z,3.11
2023-05-06T06:23:44.758Z,3.11
2023-05-06T06:26:16.931Z,2.74
2023-05-06T06:28:48.638Z,2.55
2023-05-06T06:31:20.607Z,2.73
2023-05-06T06:33:52.320Z,2.97
2023-05-06T06:36:24.057Z,2.90
2023-05-06T06:38:55.814Z,2.87
2023-05-06T06:41:27.788Z,2.93
2023-05-06T06:43:59.423Z,3.12
2023-05-06T06:46:34.146Z,2.77
2023-05-06T06:49:05.964Z,3.03
2023-05-06T06:51:37.791Z,3.06
2023-05-06T06:54:09.473Z,2.82
2023-05-06T06:56:41.149Z,3.00
2023-05-06T06:59:12.847Z,2.88
2023-05-06T07:01:44.565Z,3.01
2023-05-06T07:04:16.334Z,2.90
2023-05-06T07:06:48.506Z,3.20
2023-05-06T07:09:20.255Z,3.00
2023-05-06T07:11:52.005Z,2.92
2023-05-06T07:14:23.653Z,3.09
2023-05-06T07:16:55.302Z,3.13
2023-05-06T07:19:30.089Z,3.29
2023-05-06T07:22:01.804Z,3.09
2023-05-06T07:24:33.468Z,3.13
2023-05-06T07:27:05.076Z,3.50
2023-05-06T07:29:36.754Z,3.46
2023-05-06T07:32:08.368Z,3.48
2023-05-06T07:34:40.003Z,3.30
2023-05-06T07:37:11.619Z,3.52
2023-05-06T07:39:43.204Z,3.47
2023-05-06T07:42:14.826Z,3.22
2023-05-06T07:44:46.390Z,3.42
2023-05-06T07:47:28.217Z,3.38
2023-05-06T07:49:59.881Z,3.20
2023-05-06T07:52:31.561Z,3.39
2023-05-06T07:55:03.323Z,3.13
2023-05-06T07:57:34.924Z,3.35
2023-05-06T08:00:07.198Z,3.25
2023-05-06T08:02:44.617Z,3.20
2023-05-06T08:05:16.552Z,3.40
2023-05-06T08:07:48.187Z,3.45
2023-05-06T08:10:19.794Z,3.12
2023-05-06T08:12:51.419Z,3.26
2023-05-06T08:15:23.204Z,3.35
2023-05-06T08:17:54.763Z,2.91
2023-05-06T08:20:26.397Z,3.24
2023-05-06T08:22:58.060Z,3.37
2023-05-06T08:25:29.737Z,3.28
2023-05-06T08:28:01.387Z,3.24
2023-05-06T08:30:33.061Z,3.19
2023-05-06T08:33:04.926Z,3.19
2023-05-06T08:35:36.842Z,2.98
2023-05-06T08:38:08.635Z,2.98
2023-05-06T08:40:44.798Z,2.84
2023-05-06T08:43:20.989Z,2.63
2023-05-06T08:45:54.407Z,2.80
2023-05-06T08:48:26.471Z,3.39
2023-05-06T08:51:03.378Z,4.00
2023-05-06T08:53:35.877Z,4.15
2023-05-06T08:56:08.119Z,4.29
2023-05-06T08:58:45.112Z,3.52
2023-05-06T09:01:16.884Z,3.04
2023-05-06T09:03:49.804Z,4.20
2023-05-06T09:06:22.619Z,4.13
2023-05-06T09:08:54.438Z,4.36
2023-05-06T09:11:28.796Z,3.31
2023-05-06T09:14:08.659Z,2.78
2023-05-06T09:16:45.928Z,2.98
2023-05-06T09:19:26.519Z,3.14
2023-05-06T09:22:03.663Z,4.19
2023-05-06T09:24:35.733Z,4.43
2023-05-06T09:27:09.751Z,3.42
2023-05-06T09:30:12.750Z,3.31
2023-05-06T09:32:44.795Z,4.06
2023-05-06T09:35:17.082Z,4.45
2023-05-06T09:37:48.673Z,4.13
2023-05-06T09:40:24.233Z,4.14
2023-05-06T09:42:56.532Z,4.67
2023-05-06T09:45:30.247Z,4.42
2023-05-06T09:48:02.524Z,4.72
2023-05-06T09:50:34.155Z,4.41
2023-05-06T09:53:06.999Z,4.30
2023-05-06T09:55:41.714Z,4.55
2023-05-06T09:58:13.545Z,4.65
2023-05-06T10:00:46.653Z,4.60
2023-05-06T10:03:21.842Z,4.45
2023-05-06T10:05:54.660Z,4.66
2023-05-06T10:08:26.912Z,4.94
2023-05-06T10:11:01.516Z,4.64
2023-05-06T10:13:35.280Z,4.68
2023-05-06T10:16:08.875Z,4.43
2023-05-06T10:18:43.798Z,4.54
2023-05-06T10:21:22.482Z,4.81
2023-05-06T10:24:04.920Z,4.73
2023-05-06T10:26:38.409Z,4.66
2023-05-06T10:29:11.950Z,4.94
2023-05-06T10:31:52.675Z,4.85
2023-05-06T10:34:26.586Z,4.85
2023-05-06T10:37:00.890Z,4.86
2023-05-06T10:39:33.582Z,4.82
2023-05-06T10:42:05.427Z,4.78
2023-05-06T10:44:56.424Z,4.88
2023-05-06T10:47:28.161Z,4.80
2023-05-06T10:50:22.528Z,4.56
2023-05-06T10:52:56.984Z,4.52
2023-05-06T10:55:36.501Z,4.48
2023-05-06T10:58:11.349Z,4.12
2023-05-06T11:00:54.113Z,3.86
2023-05-06T11:03:26.563Z,4.20
2023-05-06T11:05:58.402Z,3.99
2023-05-06T11:08:30.649Z,4.29
2023-05-06T11:11:51.532Z,4.22
2023-05-06T11:14:35.177Z,4.03
2023-05-06T11:17:09.393Z,3.93
2023-05-06T11:19:41.074Z,4.03
2023-05-06T11:22:39.132Z,3.91
2023-05-06T11:25:11.044Z,3.88
2023-05-06T11:27:42.741Z,4.16
2023-05-06T11:30:14.671Z,4.19
2023-05-06T11:32:47.479Z,4.02
2023-05-06T11:35:19.455Z,3.78
2023-05-06T11:37:51.537Z,4.05
2023-05-06T11:40:23.392Z,3.98
2023-05-06T11:42:55.240Z,3.64
2023-05-06T11:45:39.408Z,3.53
2023-05-06T11:48:12.496Z,3.75
2023-05-06T11:50:50.787Z,3.80
2023-05-06T11:53:24.317Z,3.87
2023-05-06T11:55:55.997Z,3.77
2023-05-06T11:58:29.296Z,3.32
2023-05-06T12:01:03.593Z,3.99
2023-05-06T12:03:35.607Z,3.82
2023-05-06T12:06:07.454Z,3.58
2023-05-06T12:08:40.227Z,2.97
2023-05-06T12:11:11.958Z,2.84
2023-05-06T12:13:44.118Z,2.55
2023-05-06T12:16:15.939Z,2.60
2023-05-06T12:18:47.695Z,2.88
2023-05-06T12:21:26.547Z,2.82
2023-05-06T12:24:00.937Z,2.61
2023-05-06T12:26:46.978Z,2.64
2023-05-06T12:29:19.338Z,2.51
2023-05-06T12:32:10.893Z,2.43
2023-05-06T12:34:42.595Z,2.38
2023-05-06T12:37:25.441Z,2.64
2023-05-06T12:39:59.207Z,2.52
2023-05-06T12:42:31.318Z,2.54
2023-05-06T12:45:15.553Z,2.97
2023-05-06T12:47:54.522Z,2.75
2023-05-06T12:50:32.287Z,2.81
2023-05-06T12:53:05.570Z,2.65
2023-05-06T12:55:38.956Z,3.01
2023-05-06T12:58:20.355Z,2.86
2023-05-06T13:00:52.055Z,2.85
2023-05-06T13:03:23.736Z,2.91
2023-05-06T13:05:55.379Z,2.80
2023-05-06T13:08:26.967Z,2.76
2023-05-06T13:10:58.525Z,3.01
2023-05-06T13:13:30.071Z,2.83
2023-05-06T13:16:01.725Z,3.13
2023-05-06T13:18:33.621Z,2.80
2023-05-06T13:21:05.587Z,2.90
2023-05-06T13:23:37.225Z,2.93
2023-05-06T13:26:08.851Z,2.94
2023-05-06T13:28:40.532Z,2.93
2023-05-06T13:31:12.157Z,2.93
2023-05-06T13:33:43.856Z,2.96
2023-05-06T13:36:15.544Z,2.86
2023-05-06T13:38:47.293Z,3.03
2023-05-06T13:41:18.941Z,2.94
2023-05-06T13:43:50.779Z,2.93
2023-05-06T13:46:22.472Z,2.87
2023-05-06T13:48:54.129Z,2.81
2023-05-06T13:51:26.023Z,3.05
2023-05-06T13:53:57.909Z,3.02
2023-05-06T13:56:29.833Z,3.11
2023-05-06T13:59:01.608Z,3.18
2023-05-06T14:01:33.712Z,3.16
2023-05-06T14:04:05.866Z,3.17
2023-05-06T14:06:37.694Z,3.10
2023-05-06T14:09:11.314Z,3.01
2023-05-06T14:11:43.036Z,3.25
2023-05-06T14:14:15.348Z,2.94
2023-05-06T14:16:46.955Z,3.11
2023-05-06T14:19:18.771Z,2.98
2023-05-06T14:21:50.371Z,3.00
2023-05-06T14:24:21.956Z,2.70
2023-05-06T14:26:53.810Z,2.81
2023-05-06T14:29:25.525Z,2.77
2023-05-06T14:31:57.184Z,2.84
2023-05-06T14:34:28.896Z,3.19
2023-05-06T14:37:00.499Z,2.86
2023-05-06T14:39:32.103Z,2.98
2023-05-06T14:42:03.894Z,2.47
2023-05-06T14:44:35.703Z,2.68
2023-05-06T14:47:07.299Z,2.88
2023-05-06T14:49:38.827Z,3.09
2023-05-06T14:52:10.430Z,3.38
2023-05-06T14:54:42.672Z,4.46
2023-05-06T14:57:14.467Z,5.10
2023-05-06T14:59:46.130Z,4.71
2023-05-06T15:02:17.736Z,4.62
2023-05-06T15:04:49.330Z,4.09
2023-05-06T15:07:20.942Z,3.14
2023-05-06T15:09:53.135Z,2.62
2023-05-06T15:12:24.809Z,2.58
2023-05-06T15:14:56.481Z,2.68
2023-05-06T15:17:28.117Z,2.54
2023-05-06T15:19:59.851Z,2.75
2023-05-06T15:22:31.498Z,2.75
2023-05-06T15:25:03.039Z,2.66
2023-05-06T15:27:34.659Z,2.72
2023-05-06T15:30:06.974Z,2.74
2023-05-06T15:32:38.603Z,2.60
2023-05-06T15:35:10.308Z,2.61
2023-05-06T15:37:41.973Z,2.62
2023-05-06T15:40:13.837Z,2.95
2023-05-06T15:42:45.501Z,2.93
2023-05-06T15:45:18.693Z,2.53
2023-05-06T15:47:50.405Z,2.70
2023-05-06T15:50:32.766Z,2.71
2023-05-06T15:53:05.254Z,2.42
2023-05-06T15:55:45.169Z,2.79
2023-05-06T15:58:21.058Z,2.83
2023-05-06T16:00:52.693Z,2.58
2023-05-06T16:03:24.624Z,2.76
2023-05-06T16:05:58.655Z,2.73
2023-05-06T16:08:31.006Z,2.86
2023-05-06T16:11:02.663Z,2.80
2023-05-06T16:13:34.283Z,2.71
2023-05-06T16:16:06.391Z,2.73
2023-05-06T16:18:38.224Z,2.75
2023-05-06T16:21:09.922Z,2.83
2023-05-06T16:23:41.766Z,2.55
2023-05-06T16:26:13.828Z,2.41
2023-05-06T16:28:45.531Z,2.22
2023-05-06T16:31:17.471Z,1.88
2023-05-06T16:33:49.248Z,2.47
2023-05-06T16:36:21.219Z,2.30
2023-05-06T16:38:52.949Z,2.34
2023-05-06T16:41:24.878Z,2.30
2023-05-06T16:43:56.576Z,2.14
2023-05-06T16:46:28.252Z,2.03
2023-05-06T16:48:59.941Z,1.86
2023-05-06T16:51:31.675Z,1.57
2023-05-06T16:54:03.336Z,1.67
2023-05-06T16:56:48.041Z,1.39
2023-05-06T16:59:23.024Z,1.45
2023-05-06T17:01:54.738Z,1.39
2023-05-06T17:04:26.698Z,1.36
2023-05-06T17:06:58.556Z,1.44
2023-05-06T17:09:30.764Z,1.46
2023-05-06T17:12:02.336Z,1.47
2023-05-06T17:14:33.937Z,1.46
2023-05-06T17:17:05.721Z,1.32
2023-05-06T17:19:37.445Z,1.54
2023-05-06T17:22:09.058Z,1.36
2023-05-06T17:24:40.644Z,1.65
2023-05-06T17:27:12.228Z,1.44
2023-05-06T17:29:45.518Z,1.26
2023-05-06T17:32:17.181Z,1.48
2023-05-06T17:34:48.803Z,1.51
2023-05-06T17:37:20.487Z,1.42
2023-05-06T17:39:52.032Z,1.56
2023-05-06T17:42:23.602Z,1.59
2023-05-06T17:44:55.211Z,1.68
2023-05-06T17:47:26.846Z,1.70
2023-05-06T17:49:58.506Z,2.06
2023-05-06T17:52:30.136Z,1.64
2023-05-06T17:55:15.441Z,1.69
2023-05-06T17:57:48.312Z,1.50
2023-05-06T18:00:20.123Z,1.97
2023-05-06T18:02:51.817Z,1.89
2023-05-06T18:05:23.629Z,1.86
2023-05-06T18:07:55.159Z,1.79
2023-05-06T18:10:26.872Z,1.71
2023-05-06T18:12:58.684Z,1.65
2023-05-06T18:15:30.433Z,1.71
2023-05-06T18:18:02.601Z,1.95
2023-05-06T18:20:34.379Z,1.61
2023-05-06T18:23:07.702Z,1.94
2023-05-06T18:25:39.377Z,2.06
2023-05-06T18:28:11.235Z,2.18
2023-05-06T18:30:42.905Z,2.10
2023-05-06T18:33:14.844Z,2.30
2023-05-06T18:35:46.502Z,2.05
2023-05-06T18:38:18.255Z,1.81
2023-05-06T18:40:49.972Z,2.05
2023-05-06T18:43:22.061Z,1.92
2023-05-06T18:45:53.830Z,2.29
2023-05-06T18:48:25.778Z,2.53
2023-05-06T18:51:17.797Z,2.47
2023-05-06T18:53:49.857Z,2.81
2023-05-06T18:56:21.590Z,2.65
2023-05-06T18:58:53.272Z,3.98
2023-05-06T19:01:25.587Z,2.78
2023-05-06T19:04:00.330Z,2.55
2023-05-06T19:06:32.473Z,2.35
2023-05-06T19:09:05.021Z,2.29
2023-05-06T19:11:36.677Z,2.33
2023-05-06T19:14:08.314Z,3.17
2023-05-06T19:16:40.010Z,3.33
2023-05-06T19:19:11.742Z,2.51
2023-05-06T19:21:43.370Z,2.59
2023-05-06T19:24:15.315Z,2.25
2023-05-06T19:26:46.973Z,2.50
2023-05-06T19:29:18.511Z,2.37
2023-05-06T19:31:50.505Z,2.26
2023-05-06T19:34:22.004Z,2.30
2023-05-06T19:36:53.789Z,2.03
2023-05-06T19:39:25.411Z,2.09
2023-05-06T19:41:57.113Z,2.33
2023-05-06T19:44:28.662Z,2.57
2023-05-06T19:47:00.177Z,2.60
2023-05-06T19:49:31.794Z,2.59
2023-05-06T19:52:24.877Z,2.78
2023-05-06T19:54:57.618Z,2.66
2023-05-06T19:57:30.931Z,2.77
2023-05-06T20:00:03.480Z,2.68
2023-05-06T20:02:37.919Z,2.86
2023-05-06T20:05:11.139Z,3.18
2023-05-06T20:07:43.490Z,2.96
2023-05-06T20:10:15.581Z,3.12
2023-05-06T20:12:48.446Z,3.30
2023-05-06T20:15:22.312Z,3.16
2023-05-06T20:17:54.677Z,3.17
2023-05-06T20:20:26.969Z,3.35
2023-05-06T20:22:58.926Z,3.41
2023-05-06T20:25:32.399Z,3.41
2023-05-06T20:28:06.284Z,3.20
2023-05-06T20:30:38.126Z,3.13
2023-05-06T20:33:10.492Z,3.07
2023-05-06T20:35:45.095Z,3.09
2023-05-06T20:38:16.741Z,3.03
2023-05-06T20:40:51.039Z,3.07
2023-05-06T20:43:23.102Z,3.24
2023-05-06T20:45:54.790Z,3.30
2023-05-06T20:48:26.438Z,3.09
2023-05-06T20:50:58.109Z,3.27
2023-05-06T20:53:29.996Z,3.34
2023-05-06T20:56:01.625Z,3.34
2023-05-06T20:58:33.187Z,3.42
2023-05-06T21:01:04.745Z,3.20
2023-05-06T21:03:36.429Z,3.27
2023-05-06T21:06:08.146Z,3.28
2023-05-06T21:08:39.734Z,3.39
2023-05-06T21:11:11.361Z,3.24
2023-05-06T21:13:42.976Z,3.37
2023-05-06T21:16:14.594Z,3.41
2023-05-06T21:18:46.804Z,3.06
2023-05-06T21:21:18.512Z,3.07
2023-05-06T21:23:50.909Z,3.32
2023-05-06T21:26:22.593Z,3.19
2023-05-06T21:28:54.296Z,3.32
2023-05-06T21:31:25.959Z,3.02
2023-05-06T21:33:59.058Z,3.08
2023-05-06T21:36:30.679Z,3.17
2023-05-06T21:39:13.474Z,2.77
2023-05-06T21:41:45.070Z,2.89
2023-05-06T21:44:16.611Z,2.69
2023-05-06T21:46:48.244Z,2.90
2023-05-06T21:49:19.905Z,3.21
2023-05-06T21:51:51.550Z,2.84
2023-05-06T21:54:23.113Z,2.69
2023-05-06T21:56:54.820Z,2.85
2023-05-06T21:59:26.368Z,2.89
2023-05-06T22:01:57.978Z,2.93
2023-05-06T22:04:29.713Z,2.75
2023-05-06T22:07:01.346Z,2.81
2023-05-06T22:09:33.000Z,3.05
2023-05-06T22:12:04.684Z,2.87
2023-05-06T22:14:41.253Z,2.86
2023-05-06T22:17:13.265Z,3.00
2023-05-06T22:19:44.884Z,3.07
2023-05-06T22:22:17.097Z,3.11
2023-05-06T22:24:48.735Z,2.62
2023-05-06T22:27:20.275Z,2.83
2023-05-06T22:29:51.880Z,2.82
2023-05-06T22:32:23.518Z,3.10
2023-05-06T22:34:55.134Z,3.10
2023-05-06T22:37:26.669Z,3.07
2023-05-06T22:39:58.271Z,2.99
2023-05-06T22:42:29.841Z,2.96
2023-05-06T22:45:01.472Z,3.02
2023-05-06T22:47:33.180Z,3.02
2023-05-06T22:50:05.556Z,3.07
2023-05-06T22:52:37.173Z,3.23
2023-05-06T22:55:09.054Z,3.51
2023-05-06T22:57:40.766Z,3.18
2023-05-06T23:00:12.840Z,3.42
2023-05-06T23:02:51.805Z,3.32
2023-05-06T23:05:23.534Z,3.43
2023-05-06T23:07:55.140Z,3.37
2023-05-06T23:10:26.732Z,3.53
2023-05-06T23:13:04.355Z,3.27
2023-05-06T23:15:36.016Z,3.15
2023-05-06T23:18:07.823Z,3.52
2023-05-06T23:20:39.558Z,3.69
2023-05-06T23:23:11.188Z,3.34
2023-05-06T23:25:42.809Z,3.49
2023-05-06T23:28:14.506Z,3.30
2023-05-06T23:30:46.289Z,3.33
2023-05-06T23:33:17.888Z,3.59
2023-05-06T23:35:49.416Z,3.50
2023-05-06T23:38:21.148Z,3.45
2023-05-06T23:40:52.821Z,3.38
2023-05-06T23:43:24.520Z,3.65
2023-05-06T23:45:56.127Z,3.64
2023-05-06T23:48:27.790Z,3.65
2023-05-06T23:50:59.450Z,3.51
2023-05-06T23:53:31.129Z,3.77
2023-05-06T23:56:03.138Z,3.58
2023-05-06T23:58:34.772Z,3.62
